sensor_id;sensor_type;location;lat;lon;timestamp;P1;durP1;ratioP1;P2;durP2;ratioP2
8102;SDS011;4094;49.948;11.574;2022-10-16T00:00:13;4.00;;;3.70;;
8102;SDS011;4094;49.948;11.574;2022-10-16T00:02:42;5.87;;;3.77;;
8102;SDS011;4094;49.948;11.574;2022-10-16T00:05:11;3.93;;;3.63;;
8102;SDS011;4094;49.948;11.574;2022-10-16T00:07:40;3.70;;;3.50;;
8102;SDS011;4094;49.948;11.574;2022-10-16T00:10:10;4.83;;;3.80;;
8102;SDS011;4094;49.948;11.574;2022-10-16T00:12:39;4.33;;;3.50;;
8102;SDS011;4094;49.948;11.574;2022-10-16T00:15:09;3.83;;;3.53;;
8102;SDS011;4094;49.948;11.574;2022-10-16T00:17:38;4.10;;;3.80;;
8102;SDS011;4094;49.948;11.574;2022-10-16T00:20:07;3.70;;;3.50;;
8102;SDS011;4094;49.948;11.574;2022-10-16T00:22:55;4.07;;;3.67;;
8102;SDS011;4094;49.948;11.574;2022-10-16T00:25:26;4.00;;;3.70;;
8102;SDS011;4094;49.948;11.574;2022-10-16T00:27:55;3.83;;;3.53;;
8102;SDS011;4094;49.948;11.574;2022-10-16T00:30:24;5.13;;;3.60;;
8102;SDS011;4094;49.948;11.574;2022-10-16T00:32:55;5.10;;;3.80;;
8102;SDS011;4094;49.948;11.574;2022-10-16T00:35:24;3.83;;;3.50;;
8102;SDS011;4094;49.948;11.574;2022-10-16T00:37:53;3.70;;;3.40;;
8102;SDS011;4094;49.948;11.574;2022-10-16T00:40:22;3.60;;;3.40;;
8102;SDS011;4094;49.948;11.574;2022-10-16T00:42:52;3.60;;;3.40;;
8102;SDS011;4094;49.948;11.574;2022-10-16T00:45:21;3.93;;;3.63;;
8102;SDS011;4094;49.948;11.574;2022-10-16T00:47:51;3.57;;;3.37;;
8102;SDS011;4094;49.948;11.574;2022-10-16T00:50:24;4.30;;;3.57;;
8102;SDS011;4094;49.948;11.574;2022-10-16T00:52:56;6.07;;;3.63;;
8102;SDS011;4094;49.948;11.574;2022-10-16T00:55:26;4.27;;;3.97;;
8102;SDS011;4094;49.948;11.574;2022-10-16T00:57:58;3.53;;;3.23;;
8102;SDS011;4094;49.948;11.574;2022-10-16T01:00:28;4.30;;;3.90;;
8102;SDS011;4094;49.948;11.574;2022-10-16T01:02:58;6.83;;;3.60;;
8102;SDS011;4094;49.948;11.574;2022-10-16T01:05:30;4.10;;;3.80;;
8102;SDS011;4094;49.948;11.574;2022-10-16T01:08:06;3.70;;;3.50;;
8102;SDS011;4094;49.948;11.574;2022-10-16T01:10:42;4.30;;;3.57;;
8102;SDS011;4094;49.948;11.574;2022-10-16T01:13:21;3.80;;;3.50;;
8102;SDS011;4094;49.948;11.574;2022-10-16T01:15:54;5.47;;;4.13;;
8102;SDS011;4094;49.948;11.574;2022-10-16T01:18:28;5.40;;;4.20;;
8102;SDS011;4094;49.948;11.574;2022-10-16T01:21:02;3.83;;;3.63;;
8102;SDS011;4094;49.948;11.574;2022-10-16T01:23:36;4.20;;;3.90;;
8102;SDS011;4094;49.948;11.574;2022-10-16T01:26:20;4.33;;;3.90;;
8102;SDS011;4094;49.948;11.574;2022-10-16T01:28:59;4.37;;;3.90;;
8102;SDS011;4094;49.948;11.574;2022-10-16T01:31:34;3.77;;;3.57;;
8102;SDS011;4094;49.948;11.574;2022-10-16T01:34:10;4.07;;;3.77;;
8102;SDS011;4094;49.948;11.574;2022-10-16T01:36:45;5.03;;;3.50;;
8102;SDS011;4094;49.948;11.574;2022-10-16T01:39:18;3.80;;;3.50;;
8102;SDS011;4094;49.948;11.574;2022-10-16T01:41:51;3.77;;;3.57;;
8102;SDS011;4094;49.948;11.574;2022-10-16T01:44:29;3.70;;;3.40;;
8102;SDS011;4094;49.948;11.574;2022-10-16T01:47:00;4.90;;;3.53;;
8102;SDS011;4094;49.948;11.574;2022-10-16T01:49:31;3.70;;;3.33;;
8102;SDS011;4094;49.948;11.574;2022-10-16T01:52:04;3.53;;;3.33;;
8102;SDS011;4094;49.948;11.574;2022-10-16T01:54:37;3.80;;;3.60;;
8102;SDS011;4094;49.948;11.574;2022-10-16T01:57:09;3.80;;;3.50;;
8102;SDS011;4094;49.948;11.574;2022-10-16T01:59:41;3.83;;;3.53;;
8102;SDS011;4094;49.948;11.574;2022-10-16T02:02:14;3.77;;;3.47;;
8102;SDS011;4094;49.948;11.574;2022-10-16T02:04:46;3.87;;;3.60;;
8102;SDS011;4094;49.948;11.574;2022-10-16T02:07:18;6.27;;;3.57;;
8102;SDS011;4094;49.948;11.574;2022-10-16T02:09:47;4.37;;;3.97;;
8102;SDS011;4094;49.948;11.574;2022-10-16T02:12:19;3.50;;;3.30;;
8102;SDS011;4094;49.948;11.574;2022-10-16T02:14:55;3.80;;;3.50;;
8102;SDS011;4094;49.948;11.574;2022-10-16T02:17:25;3.70;;;3.50;;
8102;SDS011;4094;49.948;11.574;2022-10-16T02:19:55;3.67;;;3.47;;
8102;SDS011;4094;49.948;11.574;2022-10-16T02:22:27;3.80;;;3.60;;
8102;SDS011;4094;49.948;11.574;2022-10-16T02:24:59;3.60;;;3.30;;
8102;SDS011;4094;49.948;11.574;2022-10-16T02:27:33;3.60;;;3.30;;
8102;SDS011;4094;49.948;11.574;2022-10-16T02:30:09;3.80;;;3.50;;
8102;SDS011;4094;49.948;11.574;2022-10-16T02:32:43;3.93;;;3.73;;
8102;SDS011;4094;49.948;11.574;2022-10-16T02:35:15;3.50;;;3.30;;
8102;SDS011;4094;49.948;11.574;2022-10-16T02:37:46;3.67;;;3.47;;
8102;SDS011;4094;49.948;11.574;2022-10-16T02:40:17;4.20;;;3.33;;
8102;SDS011;4094;49.948;11.574;2022-10-16T02:42:52;3.70;;;3.40;;
8102;SDS011;4094;49.948;11.574;2022-10-16T02:45:23;3.63;;;3.37;;
8102;SDS011;4094;49.948;11.574;2022-10-16T02:47:52;3.70;;;3.40;;
8102;SDS011;4094;49.948;11.574;2022-10-16T02:50:21;3.80;;;3.50;;
8102;SDS011;4094;49.948;11.574;2022-10-16T02:52:52;3.70;;;3.50;;
8102;SDS011;4094;49.948;11.574;2022-10-16T02:55:21;3.70;;;3.50;;
8102;SDS011;4094;49.948;11.574;2022-10-16T02:57:49;3.63;;;3.37;;
8102;SDS011;4094;49.948;11.574;2022-10-16T03:00:20;4.27;;;3.47;;
8102;SDS011;4094;49.948;11.574;2022-10-16T03:02:50;3.50;;;3.30;;
8102;SDS011;4094;49.948;11.574;2022-10-16T03:05:19;4.40;;;3.77;;
8102;SDS011;4094;49.948;11.574;2022-10-16T03:07:47;3.70;;;3.40;;
8102;SDS011;4094;49.948;11.574;2022-10-16T03:10:17;3.67;;;3.37;;
8102;SDS011;4094;49.948;11.574;2022-10-16T03:12:46;3.40;;;3.30;;
8102;SDS011;4094;49.948;11.574;2022-10-16T03:15:15;4.63;;;3.53;;
8102;SDS011;4094;49.948;11.574;2022-10-16T03:17:45;3.87;;;3.57;;
8102;SDS011;4094;49.948;11.574;2022-10-16T03:20:15;3.40;;;3.20;;
8102;SDS011;4094;49.948;11.574;2022-10-16T03:22:44;3.37;;;3.17;;
8102;SDS011;4094;49.948;11.574;2022-10-16T03:25:13;3.73;;;3.50;;
8102;SDS011;4094;49.948;11.574;2022-10-16T03:27:42;4.20;;;3.40;;
8102;SDS011;4094;49.948;11.574;2022-10-16T03:30:11;3.70;;;3.30;;
8102;SDS011;4094;49.948;11.574;2022-10-16T03:32:40;6.80;;;3.50;;
8102;SDS011;4094;49.948;11.574;2022-10-16T03:35:09;3.60;;;3.40;;
8102;SDS011;4094;49.948;11.574;2022-10-16T03:37:39;3.60;;;3.40;;
8102;SDS011;4094;49.948;11.574;2022-10-16T03:40:08;3.53;;;3.30;;
8102;SDS011;4094;49.948;11.574;2022-10-16T03:42:37;4.73;;;3.70;;
8102;SDS011;4094;49.948;11.574;2022-10-16T03:45:07;3.90;;;3.60;;
8102;SDS011;4094;49.948;11.574;2022-10-16T03:47:36;3.70;;;3.50;;
8102;SDS011;4094;49.948;11.574;2022-10-16T03:50:05;3.80;;;3.60;;
8102;SDS011;4094;49.948;11.574;2022-10-16T03:52:36;3.53;;;3.33;;
8102;SDS011;4094;49.948;11.574;2022-10-16T03:55:07;3.57;;;3.37;;
8102;SDS011;4094;49.948;11.574;2022-10-16T03:57:36;3.20;;;3.00;;
8102;SDS011;4094;49.948;11.574;2022-10-16T04:00:05;4.83;;;3.90;;
8102;SDS011;4094;49.948;11.574;2022-10-16T04:02:38;3.63;;;3.37;;
8102;SDS011;4094;49.948;11.574;2022-10-16T04:05:08;4.10;;;3.50;;
8102;SDS011;4094;49.948;11.574;2022-10-16T04:07:37;4.00;;;3.70;;
8102;SDS011;4094;49.948;11.574;2022-10-16T04:10:07;4.83;;;3.40;;
8102;SDS011;4094;49.948;11.574;2022-10-16T04:12:37;3.70;;;3.50;;
8102;SDS011;4094;49.948;11.574;2022-10-16T04:15:06;4.00;;;3.60;;
8102;SDS011;4094;49.948;11.574;2022-10-16T04:17:36;3.80;;;3.60;;
8102;SDS011;4094;49.948;11.574;2022-10-16T04:20:05;3.80;;;3.30;;
8102;SDS011;4094;49.948;11.574;2022-10-16T04:22:35;3.70;;;3.50;;
8102;SDS011;4094;49.948;11.574;2022-10-16T04:25:04;4.03;;;3.73;;
8102;SDS011;4094;49.948;11.574;2022-10-16T04:27:34;8.63;;;3.87;;
8102;SDS011;4094;49.948;11.574;2022-10-16T04:30:09;3.80;;;3.60;;
8102;SDS011;4094;49.948;11.574;2022-10-16T04:32:39;3.60;;;3.40;;
8102;SDS011;4094;49.948;11.574;2022-10-16T04:35:08;4.43;;;3.60;;
8102;SDS011;4094;49.948;11.574;2022-10-16T04:37:37;3.90;;;3.60;;
8102;SDS011;4094;49.948;11.574;2022-10-16T04:40:06;4.00;;;3.60;;
8102;SDS011;4094;49.948;11.574;2022-10-16T04:42:37;4.03;;;3.73;;
8102;SDS011;4094;49.948;11.574;2022-10-16T04:45:06;3.70;;;3.50;;
8102;SDS011;4094;49.948;11.574;2022-10-16T04:47:41;3.60;;;3.40;;
8102;SDS011;4094;49.948;11.574;2022-10-16T04:50:10;3.80;;;3.50;;
8102;SDS011;4094;49.948;11.574;2022-10-16T04:52:39;3.93;;;3.67;;
8102;SDS011;4094;49.948;11.574;2022-10-16T04:55:08;3.70;;;3.50;;
8102;SDS011;4094;49.948;11.574;2022-10-16T04:57:38;3.67;;;3.47;;
8102;SDS011;4094;49.948;11.574;2022-10-16T05:00:08;3.97;;;3.67;;
8102;SDS011;4094;49.948;11.574;2022-10-16T05:02:38;4.10;;;3.80;;
8102;SDS011;4094;49.948;11.574;2022-10-16T05:05:07;3.87;;;3.50;;
8102;SDS011;4094;49.948;11.574;2022-10-16T05:07:36;3.70;;;3.50;;
8102;SDS011;4094;49.948;11.574;2022-10-16T05:10:05;4.30;;;3.57;;
8102;SDS011;4094;49.948;11.574;2022-10-16T05:12:35;3.60;;;3.27;;
8102;SDS011;4094;49.948;11.574;2022-10-16T05:15:06;3.57;;;3.37;;
8102;SDS011;4094;49.948;11.574;2022-10-16T05:17:36;3.60;;;3.40;;
8102;SDS011;4094;49.948;11.574;2022-10-16T05:20:11;3.40;;;3.27;;
8102;SDS011;4094;49.948;11.574;2022-10-16T05:22:40;3.50;;;3.30;;
8102;SDS011;4094;49.948;11.574;2022-10-16T05:25:10;3.70;;;3.50;;
8102;SDS011;4094;49.948;11.574;2022-10-16T05:27:39;3.77;;;3.47;;
8102;SDS011;4094;49.948;11.574;2022-10-16T05:30:10;3.70;;;3.40;;
8102;SDS011;4094;49.948;11.574;2022-10-16T05:32:39;3.60;;;3.40;;
8102;SDS011;4094;49.948;11.574;2022-10-16T05:35:08;3.90;;;3.47;;
8102;SDS011;4094;49.948;11.574;2022-10-16T05:37:39;4.27;;;3.87;;
8102;SDS011;4094;49.948;11.574;2022-10-16T05:40:08;4.07;;;3.70;;
8102;SDS011;4094;49.948;11.574;2022-10-16T05:42:37;3.43;;;3.23;;
8102;SDS011;4094;49.948;11.574;2022-10-16T05:45:07;3.67;;;3.33;;
8102;SDS011;4094;49.948;11.574;2022-10-16T05:47:39;4.10;;;3.80;;
8102;SDS011;4094;49.948;11.574;2022-10-16T05:50:08;3.60;;;3.40;;
8102;SDS011;4094;49.948;11.574;2022-10-16T05:52:38;4.50;;;4.00;;
8102;SDS011;4094;49.948;11.574;2022-10-16T05:55:07;4.10;;;3.53;;
8102;SDS011;4094;49.948;11.574;2022-10-16T05:57:37;3.87;;;3.57;;
8102;SDS011;4094;49.948;11.574;2022-10-16T06:00:07;3.50;;;3.30;;
8102;SDS011;4094;49.948;11.574;2022-10-16T06:02:41;3.60;;;3.30;;
8102;SDS011;4094;49.948;11.574;2022-10-16T06:05:10;3.60;;;3.27;;
8102;SDS011;4094;49.948;11.574;2022-10-16T06:07:39;3.97;;;3.67;;
8102;SDS011;4094;49.948;11.574;2022-10-16T06:10:08;4.03;;;3.80;;
8102;SDS011;4094;49.948;11.574;2022-10-16T06:12:37;4.10;;;3.80;;
8102;SDS011;4094;49.948;11.574;2022-10-16T06:15:07;4.23;;;3.93;;
8102;SDS011;4094;49.948;11.574;2022-10-16T06:17:37;3.90;;;3.70;;
8102;SDS011;4094;49.948;11.574;2022-10-16T06:20:08;4.20;;;3.80;;
8102;SDS011;4094;49.948;11.574;2022-10-16T06:22:38;3.73;;;3.53;;
8102;SDS011;4094;49.948;11.574;2022-10-16T06:25:07;3.90;;;3.57;;
8102;SDS011;4094;49.948;11.574;2022-10-16T06:27:38;3.87;;;3.67;;
8102;SDS011;4094;49.948;11.574;2022-10-16T06:30:08;4.40;;;4.10;;
8102;SDS011;4094;49.948;11.574;2022-10-16T06:32:37;3.93;;;3.70;;
8102;SDS011;4094;49.948;11.574;2022-10-16T06:35:06;3.90;;;3.70;;
8102;SDS011;4094;49.948;11.574;2022-10-16T06:37:37;4.10;;;3.80;;
8102;SDS011;4094;49.948;11.574;2022-10-16T06:40:06;3.70;;;3.40;;
8102;SDS011;4094;49.948;11.574;2022-10-16T06:42:36;4.23;;;3.70;;
8102;SDS011;4094;49.948;11.574;2022-10-16T06:45:06;3.53;;;3.33;;
8102;SDS011;4094;49.948;11.574;2022-10-16T06:47:35;3.90;;;3.70;;
8102;SDS011;4094;49.948;11.574;2022-10-16T06:50:05;5.53;;;3.43;;
8102;SDS011;4094;49.948;11.574;2022-10-16T06:52:36;3.67;;;3.47;;
8102;SDS011;4094;49.948;11.574;2022-10-16T06:55:05;4.00;;;3.70;;
8102;SDS011;4094;49.948;11.574;2022-10-16T06:57:35;4.07;;;3.77;;
8102;SDS011;4094;49.948;11.574;2022-10-16T07:00:04;3.70;;;3.50;;
8102;SDS011;4094;49.948;11.574;2022-10-16T07:02:33;3.70;;;3.50;;
8102;SDS011;4094;49.948;11.574;2022-10-16T07:05:03;3.80;;;3.50;;
8102;SDS011;4094;49.948;11.574;2022-10-16T07:07:32;3.73;;;3.43;;
8102;SDS011;4094;49.948;11.574;2022-10-16T07:10:02;4.03;;;3.67;;
8102;SDS011;4094;49.948;11.574;2022-10-16T07:12:32;3.83;;;3.60;;
8102;SDS011;4094;49.948;11.574;2022-10-16T07:15:01;3.53;;;3.33;;
8102;SDS011;4094;49.948;11.574;2022-10-16T07:17:30;3.27;;;3.07;;
8102;SDS011;4094;49.948;11.574;2022-10-16T07:19:59;3.83;;;3.53;;
8102;SDS011;4094;49.948;11.574;2022-10-16T07:22:28;3.70;;;3.40;;
8102;SDS011;4094;49.948;11.574;2022-10-16T07:24:58;3.30;;;3.00;;
8102;SDS011;4094;49.948;11.574;2022-10-16T07:27:29;3.80;;;3.60;;
8102;SDS011;4094;49.948;11.574;2022-10-16T07:29:58;5.17;;;3.60;;
8102;SDS011;4094;49.948;11.574;2022-10-16T07:32:33;3.83;;;3.63;;
8102;SDS011;4094;49.948;11.574;2022-10-16T07:35:02;4.07;;;3.77;;
8102;SDS011;4094;49.948;11.574;2022-10-16T07:37:31;3.83;;;3.60;;
8102;SDS011;4094;49.948;11.574;2022-10-16T07:40:00;3.70;;;3.43;;
8102;SDS011;4094;49.948;11.574;2022-10-16T07:42:31;3.90;;;3.50;;
8102;SDS011;4094;49.948;11.574;2022-10-16T07:45:00;3.97;;;3.77;;
8102;SDS011;4094;49.948;11.574;2022-10-16T07:47:29;3.73;;;3.40;;
8102;SDS011;4094;49.948;11.574;2022-10-16T07:49:58;3.67;;;3.30;;
8102;SDS011;4094;49.948;11.574;2022-10-16T07:52:26;3.67;;;3.30;;
8102;SDS011;4094;49.948;11.574;2022-10-16T07:54:56;3.90;;;3.27;;
8102;SDS011;4094;49.948;11.574;2022-10-16T07:57:24;3.30;;;3.10;;
8102;SDS011;4094;49.948;11.574;2022-10-16T07:59:55;3.40;;;3.20;;
8102;SDS011;4094;49.948;11.574;2022-10-16T08:02:24;3.20;;;3.00;;
8102;SDS011;4094;49.948;11.574;2022-10-16T08:04:54;3.20;;;3.00;;
8102;SDS011;4094;49.948;11.574;2022-10-16T08:07:23;3.20;;;3.00;;
8102;SDS011;4094;49.948;11.574;2022-10-16T08:09:53;4.53;;;4.13;;
8102;SDS011;4094;49.948;11.574;2022-10-16T08:12:23;12.40;;;6.13;;
8102;SDS011;4094;49.948;11.574;2022-10-16T08:14:52;8.57;;;5.77;;
8102;SDS011;4094;49.948;11.574;2022-10-16T08:17:23;7.47;;;5.70;;
8102;SDS011;4094;49.948;11.574;2022-10-16T08:19:52;8.17;;;5.23;;
8102;SDS011;4094;49.948;11.574;2022-10-16T08:22:21;4.67;;;3.90;;
8102;SDS011;4094;49.948;11.574;2022-10-16T08:24:50;3.80;;;3.50;;
8102;SDS011;4094;49.948;11.574;2022-10-16T08:27:19;3.47;;;3.20;;
8102;SDS011;4094;49.948;11.574;2022-10-16T08:29:48;3.77;;;3.10;;
8102;SDS011;4094;49.948;11.574;2022-10-16T08:32:17;3.30;;;3.10;;
8102;SDS011;4094;49.948;11.574;2022-10-16T08:34:53;3.50;;;3.20;;
8102;SDS011;4094;49.948;11.574;2022-10-16T08:37:21;3.33;;;3.13;;
8102;SDS011;4094;49.948;11.574;2022-10-16T08:39:51;3.03;;;2.83;;
8102;SDS011;4094;49.948;11.574;2022-10-16T08:42:27;3.23;;;3.00;;
8102;SDS011;4094;49.948;11.574;2022-10-16T08:48:14;3.40;;;3.20;;
8102;SDS011;4094;49.948;11.574;2022-10-16T08:50:51;3.73;;;3.00;;
8102;SDS011;4094;49.948;11.574;2022-10-16T08:53:23;3.20;;;2.90;;
8102;SDS011;4094;49.948;11.574;2022-10-16T08:55:56;3.40;;;3.17;;
8102;SDS011;4094;49.948;11.574;2022-10-16T08:58:26;3.23;;;3.03;;
8102;SDS011;4094;49.948;11.574;2022-10-16T09:00:58;2.47;;;2.37;;
8102;SDS011;4094;49.948;11.574;2022-10-16T09:03:33;2.97;;;2.77;;
8102;SDS011;4094;49.948;11.574;2022-10-16T09:06:19;2.80;;;2.60;;
8102;SDS011;4094;49.948;11.574;2022-10-16T09:09:03;3.20;;;2.97;;
8102;SDS011;4094;49.948;11.574;2022-10-16T09:11:48;3.23;;;2.90;;
8102;SDS011;4094;49.948;11.574;2022-10-16T09:14:31;3.20;;;2.90;;
8102;SDS011;4094;49.948;11.574;2022-10-16T09:17:18;3.20;;;3.00;;
8102;SDS011;4094;49.948;11.574;2022-10-16T09:19:56;5.00;;;3.10;;
8102;SDS011;4094;49.948;11.574;2022-10-16T09:22:33;2.90;;;2.77;;
8102;SDS011;4094;49.948;11.574;2022-10-16T09:25:05;4.07;;;3.10;;
8102;SDS011;4094;49.948;11.574;2022-10-16T09:27:39;2.93;;;2.83;;
8102;SDS011;4094;49.948;11.574;2022-10-16T09:30:11;2.93;;;2.60;;
8102;SDS011;4094;49.948;11.574;2022-10-16T09:32:42;3.13;;;2.80;;
8102;SDS011;4094;49.948;11.574;2022-10-16T09:35:14;2.80;;;2.60;;
8102;SDS011;4094;49.948;11.574;2022-10-16T09:37:48;3.63;;;2.83;;
8102;SDS011;4094;49.948;11.574;2022-10-16T09:40:26;2.87;;;2.70;;
8102;SDS011;4094;49.948;11.574;2022-10-16T09:43:01;3.23;;;3.03;;
8102;SDS011;4094;49.948;11.574;2022-10-16T09:45:34;2.83;;;2.63;;
8102;SDS011;4094;49.948;11.574;2022-10-16T09:48:09;3.00;;;2.80;;
8102;SDS011;4094;49.948;11.574;2022-10-16T09:50:39;2.90;;;2.70;;
8102;SDS011;4094;49.948;11.574;2022-10-16T09:53:12;2.80;;;2.60;;
8102;SDS011;4094;49.948;11.574;2022-10-16T09:55:48;3.33;;;2.80;;
8102;SDS011;4094;49.948;11.574;2022-10-16T09:58:17;2.73;;;2.60;;
8102;SDS011;4094;49.948;11.574;2022-10-16T10:00:49;3.00;;;2.80;;
8102;SDS011;4094;49.948;11.574;2022-10-16T10:03:32;3.10;;;2.90;;
8102;SDS011;4094;49.948;11.574;2022-10-16T10:06:06;2.90;;;2.73;;
8102;SDS011;4094;49.948;11.574;2022-10-16T10:11:36;3.30;;;3.03;;
8102;SDS011;4094;49.948;11.574;2022-10-16T10:14:06;3.00;;;2.80;;
8102;SDS011;4094;49.948;11.574;2022-10-16T10:16:41;3.10;;;2.80;;
8102;SDS011;4094;49.948;11.574;2022-10-16T10:19:13;2.90;;;2.70;;
8102;SDS011;4094;49.948;11.574;2022-10-16T10:21:44;3.03;;;2.70;;
8102;SDS011;4094;49.948;11.574;2022-10-16T10:24:15;3.63;;;2.90;;
8102;SDS011;4094;49.948;11.574;2022-10-16T10:26:49;3.07;;;2.87;;
8102;SDS011;4094;49.948;11.574;2022-10-16T10:29:28;3.57;;;2.97;;
8102;SDS011;4094;49.948;11.574;2022-10-16T10:32:10;2.80;;;2.60;;
8102;SDS011;4094;49.948;11.574;2022-10-16T10:34:52;4.80;;;2.30;;
8102;SDS011;4094;49.948;11.574;2022-10-16T10:37:37;2.90;;;2.70;;
8102;SDS011;4094;49.948;11.574;2022-10-16T10:40:28;3.00;;;2.80;;
8102;SDS011;4094;49.948;11.574;2022-10-16T10:43:04;2.90;;;2.70;;
8102;SDS011;4094;49.948;11.574;2022-10-16T10:45:41;3.60;;;2.80;;
8102;SDS011;4094;49.948;11.574;2022-10-16T10:48:17;2.97;;;2.73;;
8102;SDS011;4094;49.948;11.574;2022-10-16T10:50:56;3.00;;;2.80;;
8102;SDS011;4094;49.948;11.574;2022-10-16T10:53:32;2.80;;;2.60;;
8102;SDS011;4094;49.948;11.574;2022-10-16T10:56:14;2.73;;;2.60;;
8102;SDS011;4094;49.948;11.574;2022-10-16T10:58:54;2.90;;;2.70;;
8102;SDS011;4094;49.948;11.574;2022-10-16T11:01:32;5.57;;;3.20;;
8102;SDS011;4094;49.948;11.574;2022-10-16T11:04:14;2.90;;;2.70;;
8102;SDS011;4094;49.948;11.574;2022-10-16T11:07:02;2.90;;;2.70;;
8102;SDS011;4094;49.948;11.574;2022-10-16T11:09:33;2.90;;;2.70;;
8102;SDS011;4094;49.948;11.574;2022-10-16T11:12:09;3.27;;;2.87;;
8102;SDS011;4094;49.948;11.574;2022-10-16T11:14:45;3.07;;;2.87;;
8102;SDS011;4094;49.948;11.574;2022-10-16T11:17:19;3.50;;;3.20;;
8102;SDS011;4094;49.948;11.574;2022-10-16T11:19:54;3.00;;;2.80;;
8102;SDS011;4094;49.948;11.574;2022-10-16T11:22:27;2.50;;;2.33;;
8102;SDS011;4094;49.948;11.574;2022-10-16T11:25:04;2.90;;;2.70;;
8102;SDS011;4094;49.948;11.574;2022-10-16T11:27:44;3.20;;;2.90;;
8102;SDS011;4094;49.948;11.574;2022-10-16T11:30:20;3.03;;;2.83;;
8102;SDS011;4094;49.948;11.574;2022-10-16T11:33:02;3.20;;;3.00;;
8102;SDS011;4094;49.948;11.574;2022-10-16T11:35:39;4.60;;;3.30;;
8102;SDS011;4094;49.948;11.574;2022-10-16T11:38:14;3.03;;;2.80;;
8102;SDS011;4094;49.948;11.574;2022-10-16T11:40:51;4.50;;;3.03;;
8102;SDS011;4094;49.948;11.574;2022-10-16T11:43:28;4.57;;;3.00;;
8102;SDS011;4094;49.948;11.574;2022-10-16T11:46:05;2.80;;;2.60;;
8102;SDS011;4094;49.948;11.574;2022-10-16T11:48:41;2.90;;;2.70;;
8102;SDS011;4094;49.948;11.574;2022-10-16T11:51:19;3.13;;;2.83;;
8102;SDS011;4094;49.948;11.574;2022-10-16T11:53:53;3.03;;;2.80;;
8102;SDS011;4094;49.948;11.574;2022-10-16T11:56:29;4.93;;;2.70;;
8102;SDS011;4094;49.948;11.574;2022-10-16T11:59:02;2.80;;;2.60;;
8102;SDS011;4094;49.948;11.574;2022-10-16T12:01:36;2.67;;;2.30;;
8102;SDS011;4094;49.948;11.574;2022-10-16T12:04:14;2.50;;;2.30;;
8102;SDS011;4094;49.948;11.574;2022-10-16T12:06:50;2.23;;;2.03;;
8102;SDS011;4094;49.948;11.574;2022-10-16T12:09:24;2.40;;;2.07;;
8102;SDS011;4094;49.948;11.574;2022-10-16T12:11:56;3.87;;;2.20;;
8102;SDS011;4094;49.948;11.574;2022-10-16T12:14:38;2.03;;;1.93;;
8102;SDS011;4094;49.948;11.574;2022-10-16T12:17:34;2.33;;;2.10;;
8102;SDS011;4094;49.948;11.574;2022-10-16T12:20:21;2.20;;;2.10;;
8102;SDS011;4094;49.948;11.574;2022-10-16T12:22:54;3.27;;;2.20;;
8102;SDS011;4094;49.948;11.574;2022-10-16T12:25:25;3.03;;;2.00;;
8102;SDS011;4094;49.948;11.574;2022-10-16T12:27:58;2.50;;;2.30;;
8102;SDS011;4094;49.948;11.574;2022-10-16T12:30:34;2.97;;;2.20;;
8102;SDS011;4094;49.948;11.574;2022-10-16T12:33:05;2.40;;;2.20;;
8102;SDS011;4094;49.948;11.574;2022-10-16T12:35:49;2.17;;;2.00;;
8102;SDS011;4094;49.948;11.574;2022-10-16T12:38:19;2.20;;;2.00;;
8102;SDS011;4094;49.948;11.574;2022-10-16T12:40:57;2.13;;;2.03;;
8102;SDS011;4094;49.948;11.574;2022-10-16T12:43:35;2.33;;;2.13;;
8102;SDS011;4094;49.948;11.574;2022-10-16T12:46:22;3.03;;;2.20;;
8102;SDS011;4094;49.948;11.574;2022-10-16T12:48:52;2.50;;;2.30;;
8102;SDS011;4094;49.948;11.574;2022-10-16T12:51:35;2.40;;;2.20;;
8102;SDS011;4094;49.948;11.574;2022-10-16T12:54:11;2.20;;;2.10;;
8102;SDS011;4094;49.948;11.574;2022-10-16T12:56:46;2.47;;;2.20;;
8102;SDS011;4094;49.948;11.574;2022-10-16T12:59:24;2.50;;;2.20;;
8102;SDS011;4094;49.948;11.574;2022-10-16T13:02:11;2.77;;;2.20;;
8102;SDS011;4094;49.948;11.574;2022-10-16T13:05:09;2.30;;;2.20;;
8102;SDS011;4094;49.948;11.574;2022-10-16T13:07:52;2.43;;;2.23;;
8102;SDS011;4094;49.948;11.574;2022-10-16T13:10:28;2.57;;;2.30;;
8102;SDS011;4094;49.948;11.574;2022-10-16T13:13:07;2.30;;;2.10;;
8102;SDS011;4094;49.948;11.574;2022-10-16T13:15:59;2.60;;;2.27;;
8102;SDS011;4094;49.948;11.574;2022-10-16T13:18:41;2.30;;;2.20;;
8102;SDS011;4094;49.948;11.574;2022-10-16T13:21:19;2.90;;;2.30;;
8102;SDS011;4094;49.948;11.574;2022-10-16T13:24:02;2.80;;;2.60;;
8102;SDS011;4094;49.948;11.574;2022-10-16T13:26:41;2.90;;;2.47;;
8102;SDS011;4094;49.948;11.574;2022-10-16T13:29:16;2.60;;;2.40;;
8102;SDS011;4094;49.948;11.574;2022-10-16T13:31:47;2.73;;;2.17;;
8102;SDS011;4094;49.948;11.574;2022-10-16T13:34:18;2.67;;;2.47;;
8102;SDS011;4094;49.948;11.574;2022-10-16T13:36:51;2.73;;;2.53;;
8102;SDS011;4094;49.948;11.574;2022-10-16T13:39:22;2.73;;;2.40;;
8102;SDS011;4094;49.948;11.574;2022-10-16T13:42:02;2.60;;;2.40;;
8102;SDS011;4094;49.948;11.574;2022-10-16T13:44:36;2.60;;;2.40;;
8102;SDS011;4094;49.948;11.574;2022-10-16T13:47:15;2.53;;;2.40;;
8102;SDS011;4094;49.948;11.574;2022-10-16T13:49:47;2.63;;;2.43;;
8102;SDS011;4094;49.948;11.574;2022-10-16T13:52:28;2.70;;;2.50;;
8102;SDS011;4094;49.948;11.574;2022-10-16T13:54:57;2.40;;;2.30;;
8102;SDS011;4094;49.948;11.574;2022-10-16T13:57:28;2.20;;;2.10;;
8102;SDS011;4094;49.948;11.574;2022-10-16T13:59:58;3.73;;;2.40;;
8102;SDS011;4094;49.948;11.574;2022-10-16T14:02:28;2.53;;;2.33;;
8102;SDS011;4094;49.948;11.574;2022-10-16T14:05:03;2.33;;;2.13;;
8102;SDS011;4094;49.948;11.574;2022-10-16T14:07:36;2.40;;;2.30;;
8102;SDS011;4094;49.948;11.574;2022-10-16T14:10:07;2.90;;;2.70;;
8102;SDS011;4094;49.948;11.574;2022-10-16T14:12:57;2.73;;;2.53;;
8102;SDS011;4094;49.948;11.574;2022-10-16T14:15:27;2.73;;;2.53;;
8102;SDS011;4094;49.948;11.574;2022-10-16T14:17:58;4.20;;;2.80;;
8102;SDS011;4094;49.948;11.574;2022-10-16T14:20:29;2.90;;;2.70;;
8102;SDS011;4094;49.948;11.574;2022-10-16T14:23:01;2.67;;;2.47;;
8102;SDS011;4094;49.948;11.574;2022-10-16T14:25:32;2.40;;;2.30;;
8102;SDS011;4094;49.948;11.574;2022-10-16T14:28:02;2.80;;;2.60;;
8102;SDS011;4094;49.948;11.574;2022-10-16T14:30:33;2.70;;;2.50;;
8102;SDS011;4094;49.948;11.574;2022-10-16T14:33:04;2.57;;;2.47;;
8102;SDS011;4094;49.948;11.574;2022-10-16T14:35:59;2.70;;;2.50;;
8102;SDS011;4094;49.948;11.574;2022-10-16T14:38:31;2.80;;;2.60;;
8102;SDS011;4094;49.948;11.574;2022-10-16T14:41:01;2.80;;;2.60;;
8102;SDS011;4094;49.948;11.574;2022-10-16T14:43:33;2.53;;;2.43;;
8102;SDS011;4094;49.948;11.574;2022-10-16T14:46:07;3.27;;;2.63;;
8102;SDS011;4094;49.948;11.574;2022-10-16T14:48:40;3.20;;;2.60;;
8102;SDS011;4094;49.948;11.574;2022-10-16T14:51:13;2.90;;;2.70;;
8102;SDS011;4094;49.948;11.574;2022-10-16T14:53:43;2.70;;;2.50;;
8102;SDS011;4094;49.948;11.574;2022-10-16T14:56:14;2.80;;;2.40;;
8102;SDS011;4094;49.948;11.574;2022-10-16T14:58:46;2.90;;;2.70;;
8102;SDS011;4094;49.948;11.574;2022-10-16T15:01:15;2.57;;;2.37;;
8102;SDS011;4094;49.948;11.574;2022-10-16T15:03:45;2.70;;;2.50;;
8102;SDS011;4094;49.948;11.574;2022-10-16T15:06:15;2.57;;;2.30;;
8102;SDS011;4094;49.948;11.574;2022-10-16T15:08:45;2.60;;;2.40;;
8102;SDS011;4094;49.948;11.574;2022-10-16T15:11:14;2.30;;;2.20;;
8102;SDS011;4094;49.948;11.574;2022-10-16T15:13:45;2.97;;;2.50;;
8102;SDS011;4094;49.948;11.574;2022-10-16T15:16:15;2.70;;;2.50;;
8102;SDS011;4094;49.948;11.574;2022-10-16T15:18:45;2.80;;;2.60;;
8102;SDS011;4094;49.948;11.574;2022-10-16T15:21:18;2.67;;;2.47;;
8102;SDS011;4094;49.948;11.574;2022-10-16T15:23:56;3.10;;;2.80;;
8102;SDS011;4094;49.948;11.574;2022-10-16T15:26:26;5.70;;;2.67;;
8102;SDS011;4094;49.948;11.574;2022-10-16T15:28:56;2.80;;;2.60;;
8102;SDS011;4094;49.948;11.574;2022-10-16T15:31:25;2.83;;;2.40;;
8102;SDS011;4094;49.948;11.574;2022-10-16T15:33:54;2.80;;;2.60;;
8102;SDS011;4094;49.948;11.574;2022-10-16T15:36:30;2.47;;;2.20;;
8102;SDS011;4094;49.948;11.574;2022-10-16T15:39:04;2.90;;;2.43;;